Time;durP1;ratioP1;P1;durP2;ratioP2;P2;SDS_P1;SDS_P2;PMS_P1;PMS_P2;Temp;Humidity;BMP_temperature;BMP_pressure;BME280_temperature;BME280_humidity;BME280_pressure;Samples;Min_cycle;Max_cycle;Signal;HPM_P1;HPM_P2
2022/12/31 00:02:44;;;;;;;;;;;;;;;;;;;;;
2022/12/31 00:06:12;;;;;;;;;;;;;;;;;;;;;
2022/12/31 00:09:14;;;;;;;8.57;0.93;;;11.20;99.90;;;;;;4895418;29;20116;-86
2022/12/31 00:12:24;;;;;;;;;;;;;;;;;;;;;
2022/12/31 00:15:43;;;;;;;5.70;0.70;;;11.30;99.90;;;;;;4923216;29;20059;-88
2022/12/31 00:18:48;;;;;;;4.07;0.75;;;11.20;99.90;;;;;;4933850;29;20039;-86
2022/12/31 00:21:50;;;;;;;;;;;;;;;;;;;;;
2022/12/31 00:25:10;;;;;;;6.28;1.02;;;11.20;99.90;;;;;;4952994;29;20514;-87
2022/12/31 00:28:36;;;;;;;5.47;0.80;;;11.20;99.90;;;;;;4953622;28;20055;-86
2022/12/31 00:32:06;;;;;;;5.82;1.20;;;11.20;99.90;;;;;;4999153;28;20409;-87
2022/12/31 00:35:18;;;;;;;;;;;;;;;;;;;;;
2022/12/31 00:38:39;;;;;;;4.15;0.68;;;11.20;99.90;;;;;;5012410;28;20046;-86
2022/12/31 00:42:04;;;;;;;;;;;;;;;;;;;;;
2022/12/31 00:45:40;;;;;;;;;;;;;;;;;;;;;
2022/12/31 00:49:02;;;;;;;6.40;1.10;;;11.20;99.90;;;;;;5020473;28;20128;-85
2022/12/31 00:52:18;;;;;;;;;;;;;;;;;;;;;
2022/12/31 00:55:42;;;;;;;4.18;0.70;;;11.10;99.90;;;;;;5014988;28;20177;-88
2022/12/31 00:58:59;;;;;;;15.43;1.63;;;11.20;99.90;;;;;;5017875;28;20522;-85
2022/12/31 01:02:18;;;;;;;6.63;1.30;;;11.30;99.90;;;;;;5034119;28;20057;-85
2022/12/31 01:05:42;;;;;;;8.05;1.30;;;11.30;99.90;;;;;;5034394;28;20050;-86
2022/12/31 01:09:03;;;;;;;10.05;1.20;;;11.20;99.90;;;;;;4995502;28;20073;-86
2022/12/31 01:12:24;;;;;;;;;;;;;;;;;;;;;
2022/12/31 01:15:40;;;;;;;8.18;1.33;;;11.30;99.90;;;;;;4994583;28;20061;-86
2022/12/31 01:19:14;;;;;;;;;;;;;;;;;;;;;
2022/12/31 01:22:19;;;;;;;5.88;1.00;;;11.30;99.90;;;;;;4981442;28;20054;-87
2022/12/31 01:25:13;;;;;;;6.13;1.10;;;11.30;99.90;;;;;;5033644;28;20076;-88
2022/12/31 01:28:32;;;;;;;8.50;1.10;;;11.30;99.90;;;;;;5017271;28;20115;-88
2022/12/31 01:31:48;;;;;;;;;;;;;;;;;;;;;
2022/12/31 01:34:56;;;;;;;6.88;0.93;;;11.30;99.90;;;;;;5034284;28;20057;-89
2022/12/31 01:38:11;;;;;;;8.50;1.30;;;11.20;99.90;;;;;;4974956;28;20111;-87
2022/12/31 01:41:22;;;;;;;11.85;1.05;;;11.20;99.90;;;;;;5012248;28;20164;-88
2022/12/31 01:44:46;;;;;;;;;;;;;;;;;;;;;
2022/12/31 01:48:07;;;;;;;10.82;1.95;;;11.20;99.90;;;;;;5013423;28;20054;-86
2022/12/31 01:51:28;;;;;;;5.82;1.45;;;11.20;99.90;;;;;;5013404;28;20494;-86
2022/12/31 01:54:35;;;;;;;5.28;1.02;;;11.20;99.90;;;;;;4964456;28;20058;-87
2022/12/31 01:57:10;;;;;;;10.82;1.30;;;11.20;99.90;;;;;;4980351;28;20053;-86
2022/12/31 02:00:18;;;;;;;5.35;1.08;;;11.20;99.90;;;;;;4996287;28;20111;-89
2022/12/31 02:03:30;;;;;;;6.60;0.80;;;11.20;99.90;;;;;;5013390;28;20073;-88
2022/12/31 02:07:10;;;;;;;;;;;;;;;;;;;;;
2022/12/31 02:10:06;;;;;;;9.45;1.58;;;10.70;99.90;;;;;;4973583;28;20102;-89
2022/12/31 02:13:20;;;;;;;8.20;1.23;;;11.20;99.90;;;;;;4973913;28;20144;-90
2022/12/31 02:16:56;;;;;;;7.90;1.10;;;11.40;99.90;;;;;;4974624;28;20085;-90
2022/12/31 02:20:15;;;;;;;5.07;0.90;;;11.30;99.90;;;;;;4935862;29;20055;-87
2022/12/31 02:23:44;;;;;;;;;;;;;;;;;;;;;
2022/12/31 02:30:52;;;;;;;4.90;1.30;;;11.20;99.90;;;;;;4868154;29;20124;-88
2022/12/31 02:34:26;;;;;;;;;;;;;;;;;;;;;
2022/12/31 02:44:53;;;;;;;4.43;1.25;;;11.20;99.90;;;;;;4823534;29;20405;-87
2022/12/31 02:47:46;;;;;;;4.03;1.15;;;11.20;99.90;;;;;;4807844;29;20129;-87
2022/12/31 02:51:16;;;;;;;7.55;1.00;;;11.30;99.90;;;;;;4844604;29;20122;-89
2022/12/31 02:54:37;;;;;;;;;;;;;;;;;;;;;
2022/12/31 02:58:00;;;;;;;3.65;0.93;;;11.30;99.90;;;;;;4920759;29;20149;-88
2022/12/31 03:04:54;;;;;;;6.10;1.40;;;11.30;99.90;;;;;;4954106;29;20090;-87
2022/12/31 03:15:46;;;;;;;;;;;;;;;;;;;;;
2022/12/31 03:22:42;;;;;;;;;;;;;;;;;;;;;
2022/12/31 03:26:11;;;;;;;;;;;;;;;;;;;;;
2022/12/31 03:29:49;;;;;;;2.40;0.70;;;11.30;99.90;;;;;;4997205;28;20050;-87
2022/12/31 03:33:09;;;;;;;1.70;0.50;;;11.10;99.90;;;;;;5011572;28;20056;-87
2022/12/31 03:36:46;;;;;;;;;;;;;;;;;;;;;
2022/12/31 03:40:04;;;;;;;2.95;0.95;;;11.20;99.90;;;;;;4934250;29;20168;-88
2022/12/31 03:43:14;;;;;;;2.17;0.50;;;11.20;99.90;;;;;;4933172;29;20179;-88
2022/12/31 03:50:28;;;;;;;2.17;0.40;;;10.80;99.90;;;;;;4890170;29;20071;-88
2022/12/31 03:53:57;;;;;;;;;;;;;;;;;;;;;
2022/12/31 03:57:21;;;;;;;1.58;0.52;;;11.10;99.90;;;;;;4882060;29;20076;-87
2022/12/31 04:00:49;;;;;;;4.47;0.30;;;11.10;99.90;;;;;;4914787;29;20052;-87
2022/12/31 04:04:06;;;;;;;;;;;;;;;;;;;;;
2022/12/31 04:07:30;;;;;;;;;;;;;;;;;;;;;
2022/12/31 04:11:08;;;;;;;;;;;;;;;;;;;;;
2022/12/31 04:14:42;;;;;;;;;;;;;;;;;;;;;
2022/12/31 04:17:42;;;;;;;4.18;0.50;;;11.00;99.90;;;;;;4933523;28;20055;-89
2022/12/31 04:20:58;;;;;;;3.60;0.30;;;10.90;99.90;;;;;;4917018;29;20111;-90
2022/12/31 04:24:10;;;;;;;;;;;;;;;;;;;;;
2022/12/31 04:27:42;;;;;;;;;;;;;;;;;;;;;
2022/12/31 04:31:02;;;;;;;2.20;0.35;;;11.00;99.90;;;;;;4972174;28;20046;-89
2022/12/31 04:34:10;;;;;;;1.30;0.20;;;11.00;99.90;;;;;;4967744;28;20426;-89
2022/12/31 04:37:18;;;;;;;0.90;0.13;;;11.40;99.90;;;;;;5052326;28;20081;-88
2022/12/31 04:40:22;;;;;;;;;;;;;;;;;;;;;
2022/12/31 04:43:44;;;;;;;;;;;;;;;;;;;;;
2022/12/31 04:47:16;;;;;;;;;;;;;;;;;;;;;
2022/12/31 04:50:34;;;;;;;;;;;;;;;;;;;;;
2022/12/31 04:53:40;;;;;;;1.52;0.38;;;10.90;99.90;;;;;;5010231;28;20016;-88
2022/12/31 04:56:54;;;;;;;2.50;0.35;;;10.80;99.90;;;;;;4990653;28;20510;-87
2022/12/31 05:03:12;;;;;;;;;;;;;;;;;;;;;
2022/12/31 05:07:02;;;;;;;1.50;0.40;;;10.90;99.90;;;;;;4952255;28;20236;-88
2022/12/31 05:10:22;;;;;;;;;;;;;;;;;;;;;
2022/12/31 05:13:37;;;;;;;;;;;;;;;;;;;;;
2022/12/31 05:20:51;;;;;;;2.00;0.60;;;10.80;99.90;;;;;;4936744;29;20055;-88
2022/12/31 05:24:06;;;;;;;6.78;3.67;;;10.80;99.90;;;;;;4936970;29;20059;-88
2022/12/31 05:27:16;;;;;;;4.13;0.80;;;10.80;99.90;;;;;;4937052;29;20048;-88
2022/12/31 05:30:17;;;;;;;2.97;0.50;;;10.80;99.90;;;;;;4873904;29;20111;-87
2022/12/31 05:33:44;;;;;;;;;;;;;;;;;;;;;
2022/12/31 05:37:02;;;;;;;;;;;;;;;;;;;;;
2022/12/31 05:40:42;;;;;;;;;;;;;;;;;;;;;
2022/12/31 05:44:23;;;;;;;;;;;;;;;;;;;;;
2022/12/31 05:47:51;;;;;;;6.75;0.75;;;10.70;99.90;;;;;;4971110;28;20434;-87
2022/12/31 05:50:47;;;;;;;1.85;0.60;;;10.70;99.90;;;;;;4935811;29;20459;-86
2022/12/31 05:53:58;;;;;;;;;;;;;;;;;;;;;
2022/12/31 05:57:26;;;;;;;2.70;0.70;;;10.70;99.90;;;;;;4916888;29;20063;-87
2022/12/31 06:00:40;;;;;;;;;;;;;;;;;;;;;
2022/12/31 06:03:45;;;;;;;1.92;0.50;;;10.70;99.90;;;;;;4879477;29;20160;-86
2022/12/31 06:06:56;;;;;;;;;;;;;;;;;;;;;
2022/12/31 06:10:07;;;;;;;3.15;0.55;;;10.70;99.90;;;;;;4882509;29;20076;-86
2022/12/31 06:13:18;;;;;;;;;;;;;;;;;;;;;
2022/12/31 06:16:26;;;;;;;1.55;0.50;;;10.70;99.90;;;;;;4904112;29;20056;-86
2022/12/31 06:19:36;;;;;;;;;;;;;;;;;;;;;
2022/12/31 06:23:04;;;;;;;;;;;;;;;;;;;;;
2022/12/31 06:29:54;;;;;;;1.27;0.63;;;10.60;99.90;;;;;;4897473;29;20063;-85
2022/12/31 06:32:57;;;;;;;2.50;0.30;;;10.90;99.90;;;;;;4883062;29;20060;-86
2022/12/31 06:36:06;;;;;;;1.70;0.50;;;10.50;99.90;;;;;;4905434;29;20056;-86
2022/12/31 06:39:14;;;;;;;2.63;1.33;;;10.70;99.90;;;;;;4992962;28;20061;-87
2022/12/31 06:42:32;;;;;;;;;;;;;;;;;;;;;
2022/12/31 06:46:08;;;;;;;;;;;;;;;;;;;;;
2022/12/31 06:49:30;;;;;;;0.52;0.30;;;10.30;99.90;;;;;;4994054;28;20054;-87
2022/12/31 06:52:42;;;;;;;;;;;;;;;;;;;;;
2022/12/31 06:55:40;;;;;;;1.33;0.47;;;10.30;99.90;;;;;;5035139;28;20149;-86
2022/12/31 06:58:48;;;;;;;;;;;;;;;;;;;;;
2022/12/31 07:02:24;;;;;;;3.00;1.45;;;10.20;99.90;;;;;;5048922;28;20049;-88
2022/12/31 07:10:21;;;;;;;4.13;1.85;;;10.20;99.90;;;;;;5031730;28;20053;-88
2022/12/31 07:14:10;;;;;;;;;;;;;;;;;;;;;
2022/12/31 07:17:46;;;;;;;1.80;0.73;;;10.30;99.90;;;;;;4948814;28;20051;-88
2022/12/31 07:21:07;;;;;;;0.85;0.35;;;10.20;99.90;;;;;;4953648;29;20113;-89
2022/12/31 07:24:28;;;;;;;23.50;22.10;;;10.10;99.90;;;;;;4953096;28;20508;-88
2022/12/31 07:27:54;;;;;;;31.80;29.88;;;10.30;99.90;;;;;;4936130;29;20169;-89
2022/12/31 07:31:15;;;;;;;9.82;9.27;;;10.10;99.90;;;;;;4915037;29;20417;-89
2022/12/31 07:35:06;;;;;;;5.93;5.63;;;10.20;99.90;;;;;;4915216;29;20056;-89
2022/12/31 07:38:32;;;;;;;;;;;;;;;;;;;;;
2022/12/31 07:42:06;;;;;;;0.68;0.40;;;10.10;99.90;;;;;;4857196;29;20068;-89
2022/12/31 07:45:44;;;;;;;;;;;;;;;;;;;;;
2022/12/31 07:49:35;;;;;;;12.48;11.73;;;10.20;99.90;;;;;;4853744;29;20052;-93
2022/12/31 07:53:01;;;;;;;;;;;;;;;;;;;;;
2022/12/31 07:56:30;;;;;;;;;;;;;;;;;;;;;
2022/12/31 07:59:30;;;;;;;;;;;10.20;99.90;;;;;;4878951;29;20494;-90
2022/12/31 08:02:54;;;;;;;1.40;0.65;;;10.20;99.90;;;;;;4896232;29;19974;-90
2022/12/31 08:06:28;;;;;;;1.55;0.60;;;10.20;99.90;;;;;;4882959;29;20056;-89
2022/12/31 08:09:27;;;;;;;4.65;4.40;;;10.30;99.90;;;;;;4990441;28;20058;-86
2022/12/31 08:11:59;;;;;;;;;;;10.20;99.90;;;;;;5020072;28;20045;-85
2022/12/31 08:14:45;;;;;;;7.30;6.78;;;10.30;99.90;;;;;;5092213;28;19927;-86
2022/12/31 08:17:28;;;;;;;6.10;4.93;;;10.30;99.90;;;;;;5093315;28;20052;-87
2022/12/31 08:20:24;;;;;;;8.80;8.32;;;10.20;99.90;;;;;;5093600;28;20059;-87
2022/12/31 08:23:10;;;;;;;5.68;4.68;;;10.20;99.90;;;;;;5092245;28;20052;-86
2022/12/31 08:26:11;;;;;;;70.13;65.43;;;10.20;99.90;;;;;;5071471;28;20048;-87
2022/12/31 08:29:26;;;;;;;86.80;80.45;;;10.30;99.90;;;;;;5091859;28;20344;-86
2022/12/31 08:32:41;;;;;;;;;;;;;;;;;;;;;
2022/12/31 08:36:04;;;;;;;99.75;93.85;;;10.20;99.90;;;;;;5085326;28;20040;-87
2022/12/31 08:39:38;;;;;;;111.60;105.10;;;10.30;99.90;;;;;;5092610;28;20051;-88
2022/12/31 08:42:39;;;;;;;0.32;0.25;;;10.20;99.90;;;;;;5030108;28;20050;-87
2022/12/31 08:45:37;;;;;;;5.03;1.25;;;10.30;99.90;;;;;;4996838;28;20433;-87
2022/12/31 08:48:51;;;;;;;;;;;;;;;;;;;;;
2022/12/31 08:51:47;;;;;;;;;;;;;;;;;;;;;
2022/12/31 08:54:58;;;;;;;;;;;;;;;;;;;;;
2022/12/31 08:58:42;;;;;;;;;;;;;;;;;;;;;
2022/12/31 09:01:43;;;;;;;;;;;;;;;;;;;;;
2022/12/31 09:05:26;;;;;;;;;;;;;;;;;;;;;
2022/12/31 09:08:52;;;;;;;7.88;7.50;;;10.70;99.90;;;;;;4985848;28;20053;-87
2022/12/31 09:11:52;;;;;;;47.80;44.92;;;10.70;99.90;;;;;;4957027;28;20078;-88
2022/12/31 09:14:49;;;;;;;2.45;2.35;;;10.80;99.90;;;;;;4959451;28;20094;-87
2022/12/31 09:17:51;;;;;;;0.52;0.50;;;10.90;99.90;;;;;;4981697;28;20049;-87
2022/12/31 09:20:32;;;;;;;1.02;0.60;;;11.00;99.90;;;;;;5044032;28;20060;-87
2022/12/31 09:23:05;;;;;;;0.65;0.50;;;11.10;99.90;;;;;;5070805;28;20044;-84
2022/12/31 09:26:09;;;;;;;2.17;1.00;;;11.20;99.90;;;;;;5095741;28;20046;-89
2022/12/31 09:29:07;;;;;;;1.58;0.90;;;11.30;99.90;;;;;;5093649;28;20385;-85
2022/12/31 09:32:08;;;;;;;28.42;26.77;;;11.50;99.90;;;;;;5095942;28;20178;-88
2022/12/31 09:35:23;;;;;;;0.75;0.60;;;11.50;99.90;;;;;;5094038;28;20048;-86
2022/12/31 09:38:18;;;;;;;2.45;0.80;;;11.60;99.90;;;;;;5091995;28;20136;-84
2022/12/31 09:41:03;;;;;;;1.33;0.80;;;11.70;99.90;;;;;;5093667;28;20084;-88
2022/12/31 09:44:08;;;;;;;1.27;0.90;;;11.70;99.90;;;;;;5094190;28;20109;-86
2022/12/31 09:47:34;;;;;;;2.72;0.70;;;11.80;99.90;;;;;;5084642;28;20055;-90
2022/12/31 09:50:48;;;;;;;2.53;0.77;;;11.90;99.90;;;;;;5092680;28;20124;-88
2022/12/31 09:53:46;;;;;;;;;;;;;;;;;;;;;
2022/12/31 09:56:52;;;;;;;3.05;0.68;;;12.10;99.90;;;;;;5093413;28;20052;-86
2022/12/31 10:00:24;;;;;;;;;;;;;;;;;;;;;
2022/12/31 10:03:41;;;;;;;2.00;0.40;;;12.10;99.90;;;;;;5090235;28;20044;-88
2022/12/31 10:07:06;;;;;;;;;;;;;;;;;;;;;
2022/12/31 10:10:40;;;;;;;2.25;0.45;;;12.60;99.90;;;;;;5084027;28;20056;-87
2022/12/31 10:13:59;;;;;;;4.78;0.40;;;12.40;99.90;;;;;;5095485;28;20048;-88
2022/12/31 10:16:58;;;;;;;1.38;0.40;;;12.40;99.90;;;;;;5090221;28;20116;-86
2022/12/31 10:20:09;;;;;;;3.20;0.40;;;12.50;99.90;;;;;;5086085;28;20062;-86
2022/12/31 10:23:30;;;;;;;;;;;;;;;;;;;;;
2022/12/31 10:26:23;;;;;;;6.07;5.65;;;12.60;99.90;;;;;;5095728;28;20080;-85
2022/12/31 10:29:29;;;;;;;1.02;0.30;;;12.70;99.90;;;;;;5094860;28;20119;-86
2022/12/31 10:32:42;;;;;;;2.00;0.40;;;12.70;99.90;;;;;;5093429;28;20087;-85
2022/12/31 10:35:52;;;;;;;1.85;0.40;;;12.80;99.90;;;;;;5093681;28;20377;-84
2022/12/31 10:38:49;;;;;;;2.80;0.40;;;12.80;99.90;;;;;;5093412;28;20496;-86
2022/12/31 10:42:18;;;;;;;3.70;0.50;;;12.80;99.90;;;;;;5093599;28;20040;-88
2022/12/31 10:45:38;;;;;;;2.35;0.40;;;12.90;99.90;;;;;;5088124;28;20066;-86
2022/12/31 10:52:30;;;;;;;6.80;5.75;;;13.00;99.90;;;;;;5083957;28;20506;-85
2022/12/31 10:56:01;;;;;;;;;;;;;;;;;;;;;
2022/12/31 10:59:08;;;;;;;2.45;0.38;;;13.10;99.90;;;;;;4995248;28;20473;-83
2022/12/31 11:02:15;;;;;;;9.13;0.70;;;13.10;99.90;;;;;;5010688;28;20454;-84
2022/12/31 11:05:43;;;;;;;3.13;0.57;;;13.20;99.90;;;;;;4934975;29;20055;-87
2022/12/31 11:08:40;;;;;;;5.82;0.52;;;13.20;99.90;;;;;;4933936;29;20648;-84
2022/12/31 11:11:17;;;;;;;3.80;0.53;;;13.20;99.90;;;;;;4918247;29;20050;-85
2022/12/31 11:14:05;;;;;;;9.00;0.90;;;13.20;99.90;;;;;;4934054;29;20139;-85
2022/12/31 11:16:42;;;;;;;25.52;23.75;;;13.20;99.90;;;;;;4918545;29;20575;-85
2022/12/31 11:19:28;;;;;;;12.93;11.60;;;13.30;99.90;;;;;;4934444;29;20055;-85
2022/12/31 11:22:03;;;;;;;10.43;8.88;;;13.30;99.90;;;;;;4934685;29;20059;-85
2022/12/31 11:24:52;;;;;;;92.43;86.15;;;13.30;99.90;;;;;;4933624;29;20043;-84
2022/12/31 11:27:42;;;;;;;41.65;39.22;;;13.30;99.90;;;;;;4918471;29;20158;-84
2022/12/31 11:30:40;;;;;;;7.18;0.85;;;13.30;99.90;;;;;;4933037;29;20055;-86
2022/12/31 11:33:48;;;;;;;3.28;0.60;;;13.40;99.90;;;;;;4963108;28;20053;-84
2022/12/31 11:36:38;;;;;;;11.70;10.55;;;13.40;99.90;;;;;;4998928;28;20045;-84
2022/12/31 11:39:34;;;;;;;4.97;0.63;;;13.50;99.90;;;;;;5031174;28;20485;-84
2022/12/31 11:42:24;;;;;;;32.13;30.00;;;13.50;99.90;;;;;;5069617;28;20304;-85
2022/12/31 11:45:10;;;;;;;88.75;82.72;;;13.50;99.90;;;;;;5073018;28;20127;-85
2022/12/31 11:48:02;;;;;;;6.03;0.77;;;13.40;99.90;;;;;;5060642;28;20535;-86
2022/12/31 11:51:26;;;;;;;68.07;63.17;;;13.50;99.90;;;;;;5008031;28;20072;-83
2022/12/31 11:54:19;;;;;;;68.95;63.95;;;13.50;99.90;;;;;;4974850;28;20518;-86
2022/12/31 11:57:09;;;;;;;19.00;17.05;;;13.50;99.90;;;;;;4991479;28;20081;-84
2022/12/31 11:59:49;;;;;;;24.90;22.70;;;13.00;99.90;;;;;;4991053;28;20108;-87
2022/12/31 12:02:28;;;;;;;6.10;0.90;;;13.60;99.90;;;;;;4991491;28;20058;-83
2022/12/31 12:04:59;;;;;;;8.25;6.43;;;13.50;99.90;;;;;;4991784;28;20051;-87
2022/12/31 12:07:44;;;;;;;49.97;46.95;;;13.50;99.90;;;;;;4991459;28;20479;-87
2022/12/31 12:10:49;;;;;;;;;;;;;;;;;;;;;
2022/12/31 12:13:39;;;;;;;86.82;82.07;;;13.50;99.90;;;;;;4991230;28;20414;-89
2022/12/31 12:16:38;;;;;;;130.32;121.65;;;13.40;99.90;;;;;;4970380;28;20065;-88
2022/12/31 12:19:56;;;;;;;;;;;;;;;;;;;;;
2022/12/31 12:23:28;;;;;;;;;;;;;;;;;;;;;
2022/12/31 12:26:27;;;;;;;94.20;88.47;;;13.50;99.90;;;;;;5034165;28;20048;-89
2022/12/31 12:29:48;;;;;;;27.13;25.50;;;13.50;99.90;;;;;;5080999;28;20059;-88
2022/12/31 12:32:51;;;;;;;2.97;2.03;;;13.40;99.90;;;;;;5097090;28;20432;-86
2022/12/31 12:35:58;;;;;;;264.83;246.80;;;13.40;99.90;;;;;;5097234;28;20058;-84
2022/12/31 12:38:53;;;;;;;302.05;282.55;;;13.50;99.90;;;;;;5097486;28;20046;-87
2022/12/31 12:42:02;;;;;;;101.60;94.95;;;13.00;99.90;;;;;;5095422;28;20063;-85
2022/12/31 12:45:14;;;;;;;78.15;73.65;;;13.40;99.90;;;;;;5096603;28;20048;-85
2022/12/31 12:48:13;;;;;;;;;;;;;;;;;;;;;
2022/12/31 12:51:13;;;;;;;;;;;;;;;;;;;;;
2022/12/31 12:54:37;;;;;;;509.20;471.70;;;13.40;99.90;;;;;;5092855;28;20093;-87
2022/12/31 12:57:25;;;;;;;388.55;342.92;;;13.40;99.90;;;;;;5096725;28;20040;-89
2022/12/31 13:00:42;;;;;;;565.85;512.38;;;13.40;99.90;;;;;;5089637;28;20040;-88
2022/12/31 13:04:05;;;;;;;390.88;338.13;;;13.40;99.90;;;;;;5096883;28;20101;-87
2022/12/31 13:07:47;;;;;;;21.88;20.17;;;13.30;99.90;;;;;;5096084;28;20097;-85
2022/12/31 13:10:46;;;;;;;49.03;45.85;;;13.30;99.90;;;;;;5003587;28;20099;-87
2022/12/31 13:13:40;;;;;;;25.55;23.80;;;14.70;99.90;;;;;;5014249;28;20054;-87
2022/12/31 13:16:33;;;;;;;59.65;55.55;;;13.30;99.90;;;;;;5017448;28;20049;-85
2022/12/31 13:19:05;;;;;;;8.32;3.25;;;13.30;99.90;;;;;;5029231;28;20096;-85
2022/12/31 13:21:47;;;;;;;52.65;48.75;;;13.30;99.90;;;;;;4997385;28;20482;-86
2022/12/31 13:24:32;;;;;;;3.20;0.60;;;13.30;99.90;;;;;;4997936;28;20054;-85
2022/12/31 13:27:27;;;;;;;2.45;0.65;;;13.20;99.90;;;;;;4985988;28;20434;-85
2022/12/31 13:30:06;;;;;;;4.95;0.70;;;13.50;99.90;;;;;;5017114;28;20052;-85
2022/12/31 13:32:43;;;;;;;6.47;1.08;;;13.30;99.90;;;;;;5016621;28;20088;-86
2022/12/31 13:35:52;;;;;;;7.53;0.77;;;13.30;99.90;;;;;;5031115;28;20052;-85
2022/12/31 13:38:27;;;;;;;5.90;0.68;;;12.20;99.90;;;;;;5010910;28;20065;-86
2022/12/31 13:40:56;;;;;;;7.80;0.85;;;13.30;99.90;;;;;;4989402;28;20056;-86
2022/12/31 13:43:59;;;;;;;5.68;1.33;;;13.20;99.90;;;;;;5044507;28;20078;-86
2022/12/31 13:46:38;;;;;;;4.22;1.02;;;13.10;99.90;;;;;;5033504;28;20049;-86
2022/12/31 13:49:51;;;;;;;6.00;0.70;;;13.10;99.90;;;;;;5020483;28;20102;-85
2022/12/31 13:52:28;;;;;;;6.13;0.70;;;13.10;99.90;;;;;;5042441;28;20045;-87
2022/12/31 13:54:57;;;;;;;6.78;0.85;;;13.00;99.90;;;;;;5052915;28;20037;-85
2022/12/31 13:57:45;;;;;;;5.28;0.90;;;12.90;99.90;;;;;;5036037;28;20045;-85
2022/12/31 14:00:25;;;;;;;5.90;1.38;;;12.90;99.90;;;;;;5035836;28;20048;-86
2022/12/31 14:03:25;;;;;;;2.85;0.95;;;12.90;99.90;;;;;;5034518;28;20493;-86
2022/12/31 14:06:19;;;;;;;8.68;1.48;;;12.70;99.90;;;;;;5031289;28;20053;-85
2022/12/31 14:08:52;;;;;;;4.97;0.80;;;11.50;99.90;;;;;;5052301;28;20064;-87
2022/12/31 14:12:09;;;;;;;5.72;1.50;;;12.80;99.90;;;;;;5052562;28;20152;-87
2022/12/31 14:15:40;;;;;;;4.40;1.17;;;12.70;99.90;;;;;;5050559;28;20041;-94
2022/12/31 14:18:41;;;;;;;7.45;1.85;;;12.70;99.90;;;;;;5019912;28;20519;-86
2022/12/31 14:21:52;;;;;;;;;;;;;;;;;;;;;
2022/12/31 14:25:04;;;;;;;;;;;;;;;;;;;;;
2022/12/31 14:27:58;;;;;;;7.65;0.60;;;12.60;99.90;;;;;;5076613;28;20048;-88
2022/12/31 14:31:18;;;;;;;2.83;0.52;;;12.50;99.90;;;;;;5095189;28;20047;-90
2022/12/31 14:34:46;;;;;;;;;;;;;;;;;;;;;
2022/12/31 14:38:06;;;;;;;2.53;0.43;;;12.60;99.90;;;;;;5094680;28;20119;-89
2022/12/31 14:41:27;;;;;;;;;;;;;;;;;;;;;
2022/12/31 14:44:33;;;;;;;9.35;4.85;;;12.40;99.90;;;;;;5094740;28;20464;-86
2022/12/31 14:47:42;;;;;;;1.13;0.50;;;12.40;99.90;;;;;;5079158;28;20059;-86
2022/12/31 14:50:49;;;;;;;0.85;0.40;;;12.60;99.90;;;;;;5092829;28;20044;-86
2022/12/31 14:53:55;;;;;;;0.13;0.13;;;12.40;99.90;;;;;;5093906;28;20288;-85
2022/12/31 14:57:04;;;;;;;;;;;;;;;;;;;;;
2022/12/31 14:59:58;;;;;;;4.60;0.45;;;12.80;99.90;;;;;;5093687;28;20055;-86
2022/12/31 15:02:55;;;;;;;1.95;0.50;;;12.50;99.90;;;;;;5093934;28;20055;-87
2022/12/31 15:06:36;;;;;;;;;;;;;;;;;;;;;
2022/12/31 15:09:43;;;;;;;1.45;0.30;;;12.60;99.90;;;;;;5093194;28;20126;-86
2022/12/31 15:12:57;;;;;;;12.38;11.63;;;12.40;99.90;;;;;;5093282;28;20177;-87
2022/12/31 15:16:16;;;;;;;2.17;1.27;;;12.40;99.90;;;;;;5093396;28;20119;-88
2022/12/31 15:19:24;;;;;;;0.63;0.50;;;12.50;99.90;;;;;;5094331;28;20055;-88
2022/12/31 15:22:44;;;;;;;;;;;;;;;;;;;;;
2022/12/31 15:25:36;;;;;;;2.05;0.93;;;12.40;99.90;;;;;;5093541;28;20044;-87
2022/12/31 15:28:37;;;;;;;5.13;2.97;;;12.50;99.90;;;;;;5092015;28;20174;-91
2022/12/31 15:31:30;;;;;;;15.82;5.65;;;12.40;99.90;;;;;;5093005;28;20032;-87
2022/12/31 15:34:32;;;;;;;42.78;39.67;;;12.50;99.90;;;;;;5094402;28;20545;-88
2022/12/31 15:37:05;;;;;;;357.00;332.17;;;12.20;99.90;;;;;;5114772;28;20044;-87
2022/12/31 15:39:43;;;;;;;22.27;21.08;;;12.20;99.90;;;;;;5077980;28;20088;-87
2022/12/31 15:42:42;;;;;;;294.33;277.05;;;12.20;99.90;;;;;;5075570;28;20052;-87
2022/12/31 15:45:56;;;;;;;336.20;315.63;;;12.10;99.90;;;;;;5071484;28;20048;-86
2022/12/31 15:48:56;;;;;;;389.38;359.02;;;12.10;99.90;;;;;;5073393;28;20118;-85
2022/12/31 15:52:48;;;;;;;;;;;;;;;;;;;;;
2022/12/31 15:56:18;;;;;;;;;;;;;;;;;;;;;
2022/12/31 15:59:58;;;;;;;;;;;;;;;;;;;;;
2022/12/31 16:03:28;;;;;;;101.45;95.53;;;12.00;99.90;;;;;;5051100;28;20110;-86
2022/12/31 16:06:58;;;;;;;96.50;90.70;;;12.00;99.90;;;;;;5031190;28;20504;-85
2022/12/31 16:10:30;;;;;;;145.70;136.93;;;12.00;99.90;;;;;;5030786;28;21684;-86
2022/12/31 16:14:20;;;;;;;;;;;;;;;;;;;;;
2022/12/31 16:18:04;;;;;;;3.70;2.33;;;11.90;99.90;;;;;;4991748;28;20549;-85
2022/12/31 16:21:36;;;;;;;;;;;;;;;;;;;;;
2022/12/31 16:24:53;;;;;;;1.80;0.98;;;12.00;99.90;;;;;;4991277;28;20097;-85
2022/12/31 16:28:24;;;;;;;4.13;2.38;;;12.00;99.90;;;;;;4990220;28;20078;-85
2022/12/31 16:31:55;;;;;;;;;;;;;;;;;;;;;
2022/12/31 16:35:14;;;;;;;;;;;;;;;;;;;;;
2022/12/31 16:38:58;;;;;;;;;;;;;;;;;;;;;
2022/12/31 16:42:18;;;;;;;197.70;184.30;;;12.30;99.90;;;;;;5011070;28;20069;-84
2022/12/31 16:45:43;;;;;;;333.63;287.63;;;12.20;99.90;;;;;;5014407;28;20435;-85
2022/12/31 16:48:56;;;;;;;;;;;;;;;;;;;;;
2022/12/31 16:52:24;;;;;;;;;;;;;;;;;;;;;
2022/12/31 16:55:22;;;;;;;;;;;12.40;99.90;;;;;;5050759;28;20083;-86
2022/12/31 16:58:58;;;;;;;298.13;268.42;;;12.30;99.90;;;;;;5050607;28;19921;-86
2022/12/31 17:02:16;;;;;;;334.08;292.73;;;12.40;99.90;;;;;;5049563;28;20136;-86
2022/12/31 17:05:36;;;;;;;351.38;296.83;;;12.40;99.90;;;;;;5049469;28;20107;-86
2022/12/31 17:09:12;;;;;;;;;;;;;;;;;;;;;
2022/12/31 17:12:32;;;;;;;413.30;313.00;;;12.40;99.90;;;;;;5052954;28;20531;-86
2022/12/31 17:16:12;;;;;;;;;;;;;;;;;;;;;
2022/12/31 17:19:51;;;;;;;;;;;;;;;;;;;;;
2022/12/31 17:23:27;;;;;;;438.48;324.67;;;12.40;99.90;;;;;;5054013;28;20037;-86
2022/12/31 17:27:03;;;;;;;334.58;290.05;;;12.50;99.90;;;;;;5054067;28;20128;-86
2022/12/31 17:30:22;;;;;;;;;;;;;;;;;;;;;
2022/12/31 17:33:44;;;;;;;406.48;314.13;;;12.50;99.90;;;;;;5014056;28;20068;-86
2022/12/31 17:37:12;;;;;;;;;;;;;;;;;;;;;
2022/12/31 17:41:07;;;;;;;;;;;;;;;;;;;;;
2022/12/31 17:44:32;;;;;;;785.88;499.75;;;12.70;99.90;;;;;;4922423;29;20063;-86
2022/12/31 17:48:06;;;;;;;;;;;;;;;;;;;;;
2022/12/31 17:51:36;;;;;;;;;;;;;;;;;;;;;
2022/12/31 17:54:41;;;;;;;;;;;12.90;99.90;;;;;;5007099;28;20049;-85
2022/12/31 17:58:02;;;;;;;;;;;;;;;;;;;;;
2022/12/31 18:01:20;;;;;;;;;;;;;;;;;;;;;
2022/12/31 18:04:24;;;;;;;715.10;400.15;;;13.00;99.90;;;;;;4997050;28;19995;-87
2022/12/31 18:07:52;;;;;;;498.13;446.52;;;12.90;99.90;;;;;;5013389;28;20455;-87
2022/12/31 18:11:04;;;;;;;598.92;374.27;;;12.80;99.90;;;;;;5013290;28;20589;-86
2022/12/31 18:14:05;;;;;;;591.15;371.70;;;12.90;99.90;;;;;;5032910;28;20432;-86
2022/12/31 18:17:38;;;;;;;;;;;;;;;;;;;;;
2022/12/31 18:20:58;;;;;;;806.17;440.95;;;12.90;99.90;;;;;;5033104;28;20045;-90
2022/12/31 18:23:47;;;;;;;683.72;401.00;;;12.90;99.90;;;;;;5060397;28;20051;-86
2022/12/31 18:26:54;;;;;;;690.10;401.90;;;13.10;99.90;;;;;;5074292;28;20394;-86
2022/12/31 18:34:39;;;;;;;;;;;;;;;;;;;;;
2022/12/31 18:38:22;;;;;;;;;;;;;;;;;;;;;
2022/12/31 18:41:48;;;;;;;893.33;506.83;;;12.80;99.90;;;;;;4994980;28;20427;-89
2022/12/31 18:45:08;;;;;;;;;;;;;;;;;;;;;
2022/12/31 18:48:42;;;;;;;;;;;;;;;;;;;;;
2022/12/31 18:52:14;;;;;;;733.13;419.95;;;12.60;99.90;;;;;;4920206;29;20186;-89
2022/12/31 18:55:55;;;;;;;;;;;;;;;;;;;;;
2022/12/31 18:59:14;;;;;;;;;;;;;;;;;;;;;
2022/12/31 19:03:04;;;;;;;;;;;;;;;;;;;;;
2022/12/31 19:06:18;;;;;;;;;;;;;;;;;;;;;
2022/12/31 19:09:41;;;;;;;503.70;463.75;;;13.10;99.90;;;;;;4842795;29;20097;-88
2022/12/31 19:12:53;;;;;;;;;;;;;;;;;;;;;
2022/12/31 19:16:20;;;;;;;;;;;;;;;;;;;;;
2022/12/31 19:19:54;;;;;;;;;;;;;;;;;;;;;
2022/12/31 19:23:27;;;;;;;411.77;322.48;;;13.20;99.90;;;;;;4934782;29;20055;-90
2022/12/31 19:26:00;;;;;;;170.05;160.73;;;14.30;99.90;;;;;;4872341;29;20109;-89
2022/12/31 19:28:33;;;;;;;298.90;281.17;;;13.30;99.90;;;;;;4880592;29;20052;-88
2022/12/31 19:31:21;;;;;;;17.23;8.70;;;13.20;99.90;;;;;;4908290;29;20092;-88
2022/12/31 19:35:15;;;;;;;160.55;149.05;;;13.20;99.90;;;;;;4933219;29;20191;-90
2022/12/31 19:38:33;;;;;;;;;;;;;;;;;;;;;
2022/12/31 19:45:57;;;;;;;328.48;296.67;;;12.30;99.90;;;;;;4868498;29;20067;-89
2022/12/31 19:48:56;;;;;;;;;;;;;;;;;;;;;
2022/12/31 19:52:17;;;;;;;;;;;;;;;;;;;;;
2022/12/31 19:54:53;;;;;;;13.32;5.38;;;13.50;99.90;;;;;;4857661;29;20061;-87
2022/12/31 19:57:25;;;;;;;9.68;4.43;;;13.60;99.90;;;;;;4854712;29;20056;-88
2022/12/31 19:59:54;;;;;;;15.93;8.77;;;13.60;99.90;;;;;;4876614;29;20049;-88
2022/12/31 20:02:23;;;;;;;10.80;5.07;;;13.60;99.90;;;;;;4891882;29;20120;-88
2022/12/31 20:05:09;;;;;;;48.25;43.15;;;13.70;99.90;;;;;;4914916;29;20059;-88
2022/12/31 20:07:40;;;;;;;36.63;33.42;;;13.60;99.90;;;;;;4914684;29;20056;-88
2022/12/31 20:10:11;;;;;;;55.53;50.88;;;13.70;99.90;;;;;;4914529;29;20048;-87
2022/12/31 20:13:02;;;;;;;124.10;115.78;;;13.60;99.90;;;;;;4975645;28;20050;-87